Antioch, TX

8:25 AM CDT on July 28, 2014 (GMT -0500)
Shreveport Regional (KSHV) Elev 259 ft | 32.45 °N, 93.82 °W | Change Station

Current weather conditions updated 29 minutes ago

Mostly Cloudy
Mostly Cloudy
80 °F
Feels Like 85 °F
N
4
Wind Variable Wind from NNW

Today is forecast to be nearly the same temperature as yesterday. Afternoon thunderstorms.

Today
High -- | Low -- °F
--% Chance of Precip.
Yesterday
High -- | Low -- °F
Precip. -- in
6:29 AM 8:15 PM
New Moon, 2% visible
Pressure 30.08 in
Visibility 10.0 miles
Clouds Mostly Cloudy 6000 ft
Mostly Cloudy 14000 ft
Mostly Cloudy 30000 ft
Heat Index 85 °F
Dew Point 75 °F
Humidity 85%
Rainfall 0.00 in
Snow Depth Not available.
UV 1 out of 12
Pollen 5.70 out of 12
Air Quality Not available.
Flu Activity Not available.
METAR KSHV 281256Z 34003KT 10SM BKN060TCU BKN140 BKN300 27/24 A3009 RMK AO2 TSE34 SLP186 TS DSIPTD CB DSNT NE TCU ALQDS T02670239

More Conditions Fewer Conditions

Pressure 30.08 in
Visibility 10.0 miles
Clouds Mostly Cloudy 6000 ft
Mostly Cloudy 14000 ft
Mostly Cloudy 30000 ft
Heat Index 85 °F
Dew Point 75 °F
Humidity 85%
Rainfall 0.00 in
Snow Depth Not available.
UV 1 out of 12
Pollen 5.70 out of 12
Air Quality Not available.
Flu Activity Not available.
METAR KSHV 281256Z 34003KT 10SM BKN060TCU BKN140 BKN300 27/24 A3009 RMK AO2 TSE34 SLP186 TS DSIPTD CB DSNT NE TCU ALQDS T02670239

More Conditions Fewer Conditions

10-Day Weather Forecast

Almanac

Astronomy

Jul. 28, 2014 Rise Set
Actual Time 6:29 AM CDT 8:15 PM CDT
Civil Twilight 6:02 AM CDT 8:42 PM CDT
Nautical Twilight 5:30 AM CDT 9:14 PM CDT
Astronomical Twilight 4:55 AM CDT 9:49 PM CDT
Moon 8:02 AM CDT 9:09 PM CDT
Length of Visible Light 14h 40m
Length of Day
13h 46m
Tomorrow will be 1m 22s shorter.
New Moon, 2% of the Moon is Illuminated
Today
New Moon
Aug 3
First Quarter
Aug 10
Full
Aug 17
Last Quarter
Aug 25
New

Today's Extremes

State Highs State Lows

Community

WunderPhotos

Upload Photos

1,738,325 photos uploaded!

Nearby

Snow Depth

Station Depth Elevation
No new snow has been reported.

Earthquake Activity

City Distance Mag. Time & Date
No recent earthquake activity has been reported nearby.
Minimum magnitude displayed is 2.5.

Coastal Water Temperatures

Place Temperature
No Stations Reporting

Nearby Weather Stations

Station Location Temp. Heat Index Dew Point Humidity Wind Precip. Elev Updated Type
Amateur Radio Station -- W5RYM, Joaquin, TX 78.6 °F 82 °F 76 °F 94% NE  at  0.0 mph 0.00 in / hr 283 ft 8:25 AM CDT Rapid Fire
MesoWest JOAQUN , Joaquin, TX 86 °F 83 °F - - North  at  - 0.00 in / hr 205 ft 5:55 AM CDT MADIS
Center, TX, Center, TX 78.5 °F 82 °F 76 °F 92% WNW  at  3.5 mph 0.00 in / hr 348 ft 8:25 AM CDT Rapid Fire
MesoWest TMPSON , Timpson, TX 72 °F - - - North  at  - 0.00 in / hr 352 ft 4:40 AM CDT MADIS
rural Deep East Texas, San Augustine, TX 79.2 °F 83 °F 75 °F 88% West  at  3.0 mph 0.00 in / hr 443 ft 8:25 AM CDT Normal

Show More Stations Show Fewer Stations